YXCM weather

Cooma Hospital Helipad
Cooma, New South Wales, Australia

Public forecast

Using degrees Celsius for public forecast. Weather courtesy of forecast.io.

METAR (pilot weather report)

Closest report is Cooma Snowy Mountains Airport, 8.3 nm (15.4 km) WSW. Retrieved 2019/03/22 22:00 UTC (8 minutes ago):

YCOM 222200Z AUTO 05010KT 0700 // OVC001 11/11 Q1016

TAF (pilot weather forecast)

Forecast is more than 6 hours old.

Closest forecast is Canberra International Airport, 56.2 nm (104.2 km) N. Retrieved 2019/03/22 12:00 UTC (10 hours ago):

TAF YSCB 221108Z 2212/2312 11008KT 9999 SCT020 BKN035 BECMG 2212/2214 VRB03KT 9999 BKN015 BECMG 2221/2223 05008KT 9999 SCT025 SCT035 FM230300 32008KT 9999 -SHRA SCT070 PROB30 INTER 2304/2308 VRB15G25KT 5000 TSRA SCT070CB